Time;durP1;ratioP1;P1;durP2;ratioP2;P2;SDS_P1;SDS_P2;PMS_P1;PMS_P2;Temp;Humidity;BMP_temperature;BMP_pressure;BME280_temperature;BME280_humidity;BME280_pressure;Samples;Min_cycle;Max_cycle;Signal;HPM_P1;HPM_P2
2021/12/23 00:01:54;;;;;;;24.83;7.85;;;22.50;99.90;;;;;;5048758;28;20029;-69
2021/12/23 00:04:21;;;;;;;17.98;7.15;;;22.40;99.90;;;;;;5050368;28;20550;-70
2021/12/23 00:06:49;;;;;;;17.55;6.63;;;22.40;99.90;;;;;;5042489;28;20108;-69
2021/12/23 00:09:16;;;;;;;16.65;7.47;;;22.50;99.90;;;;;;5055324;28;20029;-68
2021/12/23 00:11:43;;;;;;;16.48;7.18;;;22.50;99.90;;;;;;5048031;28;20033;-68
2021/12/23 00:14:11;;;;;;;14.13;5.85;;;22.50;99.90;;;;;;5053373;28;20068;-68
2021/12/23 00:16:55;;;;;;;14.15;6.30;;;22.30;99.90;;;;;;5058139;28;20034;-68
2021/12/23 00:24:40;;;;;;;16.98;6.70;;;22.20;99.90;;;;;;5051514;28;20385;-69
2021/12/23 00:27:08;;;;;;;13.00;5.95;;;22.30;99.90;;;;;;5046331;28;20470;-68
2021/12/23 00:29:36;;;;;;;16.83;5.93;;;22.30;99.90;;;;;;5050276;28;20033;-68
2021/12/23 00:32:07;;;;;;;11.75;5.35;;;22.30;99.90;;;;;;5053601;28;20075;-69
2021/12/23 00:34:38;;;;;;;13.23;4.68;;;22.20;99.90;;;;;;5055334;28;20515;-68
2021/12/23 00:37:09;;;;;;;10.65;4.65;;;22.10;99.90;;;;;;5053331;28;20037;-68
2021/12/23 00:39:36;;;;;;;10.88;4.20;;;22.20;99.90;;;;;;5054483;28;20478;-67
2021/12/23 00:42:08;;;;;;;8.30;3.13;;;22.20;99.90;;;;;;5052622;28;20159;-69
2021/12/23 00:44:40;;;;;;;6.60;2.60;;;22.10;99.90;;;;;;5055066;28;20505;-68
2021/12/23 00:47:08;;;;;;;8.48;2.30;;;22.00;99.90;;;;;;5054084;28;20110;-68
2021/12/23 00:49:35;;;;;;;8.40;3.00;;;21.80;99.90;;;;;;5054798;28;20055;-68
2021/12/23 00:52:04;;;;;;;6.63;2.50;;;21.80;99.90;;;;;;5053063;28;20021;-67
2021/12/23 00:54:31;;;;;;;7.53;2.20;;;21.90;99.90;;;;;;5053044;28;20037;-68
2021/12/23 00:56:58;;;;;;;6.38;2.50;;;21.90;99.90;;;;;;5045974;28;20033;-67
2021/12/23 00:59:25;;;;;;;10.38;3.30;;;21.90;99.90;;;;;;5056770;28;20036;-67
2021/12/23 01:01:53;;;;;;;8.32;4.10;;;21.80;99.90;;;;;;5056931;28;20072;-67
2021/12/23 01:04:20;;;;;;;17.15;7.97;;;21.80;99.90;;;;;;5053496;28;20085;-66
2021/12/23 01:06:48;;;;;;;16.33;7.10;;;21.90;99.90;;;;;;5052614;28;20060;-66
2021/12/23 01:09:15;;;;;;;12.88;4.80;;;21.90;99.90;;;;;;5054223;28;20028;-67
2021/12/23 01:11:43;;;;;;;25.65;7.85;;;22.00;99.90;;;;;;5068709;28;20059;-67
2021/12/23 01:17:29;;;;;;;23.35;8.45;;;22.00;99.90;;;;;;5068745;28;20029;-67
2021/12/23 01:19:41;;;;;;;25.40;10.18;;;22.00;99.90;;;;;;5066078;28;20097;-67
2021/12/23 01:22:09;;;;;;;30.80;11.23;;;22.10;99.90;;;;;;5064512;28;20030;-67
2021/12/23 01:24:37;;;;;;;29.15;10.38;;;22.20;99.90;;;;;;5065343;28;20028;-67
2021/12/23 01:27:05;;;;;;;35.00;11.73;;;22.20;99.90;;;;;;5064136;28;20068;-68
2021/12/23 01:29:32;;;;;;;32.45;11.52;;;22.20;99.90;;;;;;5064224;28;20036;-68
2021/12/23 01:32:03;;;;;;;34.88;10.63;;;22.30;99.90;;;;;;5069918;28;20059;-68
2021/12/23 01:34:33;;;;;;;40.40;12.07;;;22.30;99.90;;;;;;5062397;28;20128;-67
2021/12/23 01:37:01;;;;;;;36.20;11.60;;;22.40;99.90;;;;;;5069474;28;20028;-67
2021/12/23 01:39:29;;;;;;;33.40;12.50;;;22.50;99.90;;;;;;5058190;28;20025;-67
2021/12/23 01:41:57;;;;;;;39.20;11.70;;;22.70;99.90;;;;;;5065568;28;20040;-67
2021/12/23 01:44:24;;;;;;;32.00;10.02;;;22.70;99.90;;;;;;5068433;28;20025;-67
2021/12/23 01:46:52;;;;;;;29.98;11.00;;;22.60;99.90;;;;;;5054898;28;20505;-67
2021/12/23 01:49:19;;;;;;;34.05;10.50;;;22.80;99.90;;;;;;5049726;28;20032;-67
2021/12/23 01:51:46;;;;;;;25.58;10.00;;;22.90;99.90;;;;;;5052437;28;20084;-68
2021/12/23 01:54:13;;;;;;;31.15;10.38;;;23.10;99.90;;;;;;5066690;28;20033;-67
2021/12/23 01:56:44;;;;;;;31.60;10.40;;;23.10;99.90;;;;;;5056769;28;20048;-67
2021/12/23 01:59:11;;;;;;;30.77;9.55;;;23.20;99.90;;;;;;5058435;28;20025;-68
2021/12/23 02:01:41;;;;;;;27.88;8.35;;;23.10;99.90;;;;;;5055182;28;20051;-67
2021/12/23 02:04:09;;;;;;;34.90;11.10;;;23.30;99.90;;;;;;5056436;28;20021;-67
2021/12/23 02:06:36;;;;;;;27.63;10.38;;;23.20;99.90;;;;;;5062279;28;20036;-67
2021/12/23 02:09:04;;;;;;;37.53;10.27;;;23.40;99.90;;;;;;5081570;28;20032;-67
2021/12/23 02:11:32;;;;;;;32.83;10.15;;;23.40;99.90;;;;;;5073383;28;20032;-68
2021/12/23 02:13:59;;;;;;;30.45;10.18;;;23.90;99.90;;;;;;5056564;28;20516;-69
2021/12/23 02:16:27;;;;;;;37.28;11.00;;;24.10;99.90;;;;;;5052342;28;20290;-70
2021/12/23 02:18:54;;;;;;;30.48;8.43;;;24.30;99.90;;;;;;5054347;28;20504;-69
2021/12/23 02:21:21;;;;;;;26.42;9.73;;;24.20;99.90;;;;;;5053398;28;20029;-69
2021/12/23 02:23:48;;;;;;;37.78;9.80;;;24.70;99.90;;;;;;5062070;28;20028;-69
2021/12/23 02:26:16;;;;;;;24.95;7.65;;;24.70;99.90;;;;;;5070140;28;20045;-69
2021/12/23 02:28:43;;;;;;;24.80;8.18;;;24.70;99.90;;;;;;5052641;28;20025;-70
2021/12/23 02:31:11;;;;;;;25.00;9.07;;;24.70;99.90;;;;;;5055290;28;20039;-69
2021/12/23 02:33:38;;;;;;;33.13;10.13;;;25.00;99.90;;;;;;5060432;28;20024;-70
2021/12/23 02:36:07;;;;;;;14.88;8.00;;;25.40;99.90;;;;;;5052944;28;20079;-70
2021/12/23 02:38:34;;;;;;;18.60;8.95;;;25.30;99.90;;;;;;5050011;28;20029;-70
2021/12/23 02:41:04;;;;;;;24.60;9.00;;;25.30;99.90;;;;;;5049725;28;20024;-71
2021/12/23 02:43:32;;;;;;;18.20;8.25;;;25.10;99.90;;;;;;5056531;28;20029;-71
2021/12/23 02:46:00;;;;;;;23.83;9.10;;;25.00;99.90;;;;;;5059434;28;20044;-70
2021/12/23 02:48:32;;;;;;;20.83;7.90;;;25.20;99.90;;;;;;5051068;28;20116;-71
2021/12/23 02:51:00;;;;;;;20.55;9.15;;;25.20;99.90;;;;;;5051158;28;20053;-70
2021/12/23 02:53:27;;;;;;;16.75;7.97;;;25.10;99.90;;;;;;5048602;28;20028;-70
2021/12/23 02:55:59;;;;;;;16.38;8.23;;;25.20;99.90;;;;;;5046183;28;20033;-71
2021/12/23 02:58:26;;;;;;;23.17;8.68;;;25.10;99.90;;;;;;5050936;28;20082;-71
2021/12/23 03:00:56;;;;;;;22.67;8.93;;;24.80;99.90;;;;;;5050686;28;20029;-71
2021/12/23 03:03:23;;;;;;;19.33;7.35;;;24.70;99.90;;;;;;5050739;28;20025;-71
2021/12/23 03:05:53;;;;;;;18.45;8.07;;;24.70;99.90;;;;;;5049264;28;20039;-71
2021/12/23 03:08:38;;;;;;;19.88;8.02;;;24.70;99.90;;;;;;5052803;28;20043;-70
2021/12/23 03:11:07;;;;;;;18.85;7.50;;;24.60;99.90;;;;;;5042506;28;20024;-71
2021/12/23 03:13:35;;;;;;;20.08;7.97;;;24.60;99.90;;;;;;5040560;28;20421;-70
2021/12/23 03:16:03;;;;;;;23.50;6.97;;;24.60;99.90;;;;;;5043659;28;20025;-70
2021/12/23 03:18:31;;;;;;;20.17;7.00;;;24.70;99.90;;;;;;5040949;28;20991;-70
2021/12/23 03:20:58;;;;;;;22.42;6.78;;;24.90;99.90;;;;;;5049188;28;20055;-71
2021/12/23 03:23:26;;;;;;;18.20;5.53;;;25.20;99.90;;;;;;5048988;28;20021;-70
2021/12/23 03:25:54;;;;;;;21.05;5.65;;;25.20;99.90;;;;;;5048607;28;20088;-71
2021/12/23 03:28:21;;;;;;;19.88;5.35;;;25.20;99.90;;;;;;5051908;28;20100;-70
2021/12/23 03:30:49;;;;;;;27.05;6.22;;;25.20;99.90;;;;;;5048031;28;20474;-70
2021/12/23 03:33:17;;;;;;;21.92;5.15;;;25.20;99.90;;;;;;5050312;28;20481;-70
2021/12/23 03:35:46;;;;;;;19.63;5.10;;;25.40;99.90;;;;;;5050792;28;20036;-71
2021/12/23 03:38:14;;;;;;;23.40;5.93;;;25.30;99.90;;;;;;5050383;28;21033;-70
2021/12/23 03:40:42;;;;;;;21.55;6.00;;;25.40;99.90;;;;;;5050556;28;20029;-72
2021/12/23 03:43:14;;;;;;;18.95;5.78;;;25.30;99.90;;;;;;5052290;28;20118;-71
2021/12/23 03:45:44;;;;;;;22.05;5.50;;;25.20;99.90;;;;;;5041528;28;20751;-71
2021/12/23 03:48:13;;;;;;;19.35;4.93;;;25.40;99.90;;;;;;5050021;28;20049;-70
2021/12/23 03:50:41;;;;;;;20.73;4.88;;;25.30;99.90;;;;;;5050494;28;20562;-71
2021/12/23 03:53:09;;;;;;;20.42;4.88;;;25.40;99.90;;;;;;5047046;28;20029;-69
2021/12/23 03:55:36;;;;;;;20.27;5.55;;;25.40;99.90;;;;;;5052788;28;20047;-69
2021/12/23 03:58:04;;;;;;;18.58;4.97;;;25.50;99.90;;;;;;5053125;28;20028;-69
2021/12/23 04:00:32;;;;;;;19.85;4.82;;;25.50;99.90;;;;;;5057049;28;20057;-70
2021/12/23 04:02:59;;;;;;;17.75;4.30;;;25.40;99.90;;;;;;5049339;28;20036;-69
2021/12/23 04:05:27;;;;;;;16.33;4.65;;;25.40;99.90;;;;;;5053795;28;20040;-70
2021/12/23 04:07:54;;;;;;;18.20;5.05;;;25.60;99.90;;;;;;5056387;28;20481;-69
2021/12/23 04:10:22;;;;;;;19.25;4.93;;;25.70;99.90;;;;;;5054855;28;20025;-69
2021/12/23 04:12:51;;;;;;;18.77;4.78;;;25.40;99.90;;;;;;5045774;28;20033;-70
2021/12/23 04:15:19;;;;;;;18.55;4.53;;;25.40;99.90;;;;;;5065644;28;20033;-69
2021/12/23 04:17:47;;;;;;;20.10;5.78;;;25.40;99.90;;;;;;5054980;28;20060;-69
2021/12/23 04:20:19;;;;;;;19.35;5.43;;;25.50;99.90;;;;;;5046236;28;20052;-69
2021/12/23 04:22:49;;;;;;;21.92;4.65;;;25.60;99.90;;;;;;5050278;28;20032;-70
2021/12/23 04:25:18;;;;;;;21.02;5.13;;;25.80;99.90;;;;;;5053294;28;20160;-71
2021/12/23 04:27:48;;;;;;;16.23;4.40;;;25.60;99.90;;;;;;5056307;28;20087;-71
2021/12/23 04:30:17;;;;;;;24.05;4.93;;;25.40;99.90;;;;;;5056655;28;20086;-69
2021/12/23 04:32:45;;;;;;;21.38;5.70;;;25.40;99.90;;;;;;5053376;28;20367;-70
2021/12/23 04:35:13;;;;;;;19.17;4.50;;;25.30;99.90;;;;;;5054852;28;20116;-69
2021/12/23 04:37:40;;;;;;;28.50;6.35;;;25.50;99.90;;;;;;5047732;28;20025;-70
2021/12/23 04:40:10;;;;;;;24.10;4.97;;;25.80;99.90;;;;;;5042245;28;20079;-67
2021/12/23 04:42:38;;;;;;;18.00;4.85;;;25.50;99.90;;;;;;5052520;28;20032;-69
2021/12/23 04:45:06;;;;;;;19.02;4.47;;;25.50;99.90;;;;;;5053328;28;20036;-69
2021/12/23 04:47:33;;;;;;;25.38;5.85;;;25.30;99.90;;;;;;5054070;28;20496;-70
2021/12/23 04:50:01;;;;;;;19.02;4.40;;;25.40;99.90;;;;;;5054769;28;20028;-71
2021/12/23 04:52:28;;;;;;;15.18;4.85;;;25.60;99.90;;;;;;5055023;28;20389;-69
2021/12/23 04:54:55;;;;;;;20.85;5.10;;;25.60;99.90;;;;;;5055918;28;20029;-68
2021/12/23 04:57:23;;;;;;;23.05;5.40;;;25.50;99.90;;;;;;5054775;28;20033;-68
2021/12/23 04:59:50;;;;;;;25.52;6.18;;;25.30;99.90;;;;;;5056215;28;20044;-69
2021/12/23 05:02:19;;;;;;;24.35;4.95;;;25.20;99.90;;;;;;5053402;28;20028;-69
2021/12/23 05:04:50;;;;;;;18.00;4.95;;;25.10;99.90;;;;;;5047944;28;20496;-69
2021/12/23 05:07:19;;;;;;;22.38;5.18;;;25.00;99.90;;;;;;5040898;28;20461;-68
2021/12/23 05:09:47;;;;;;;21.90;5.90;;;25.00;99.90;;;;;;5055884;28;20057;-69
2021/12/23 05:12:14;;;;;;;26.13;4.20;;;25.00;99.90;;;;;;5053257;28;20440;-68
2021/12/23 05:14:41;;;;;;;15.43;5.00;;;25.00;99.90;;;;;;5051832;28;20119;-67
2021/12/23 05:17:09;;;;;;;20.95;4.72;;;24.90;99.90;;;;;;5051901;28;20025;-67
2021/12/23 05:19:36;;;;;;;16.30;4.32;;;25.00;99.90;;;;;;5054130;28;20025;-67
2021/12/23 05:22:03;;;;;;;20.00;4.85;;;25.00;99.90;;;;;;5043493;28;20020;-67
2021/12/23 05:24:32;;;;;;;19.80;4.57;;;25.00;99.90;;;;;;5053133;28;20029;-67
2021/12/23 05:26:59;;;;;;;17.15;4.60;;;25.00;99.90;;;;;;5058087;28;20108;-68
2021/12/23 05:29:26;;;;;;;24.15;5.20;;;24.90;99.90;;;;;;5052937;28;20086;-67
2021/12/23 05:31:54;;;;;;;18.10;4.82;;;24.80;99.90;;;;;;5048224;28;20029;-69
2021/12/23 05:34:21;;;;;;;25.58;4.65;;;24.70;99.90;;;;;;5052177;28;20065;-68
2021/12/23 05:36:48;;;;;;;21.67;4.97;;;24.60;99.90;;;;;;5058812;28;20025;-68
2021/12/23 05:39:16;;;;;;;25.60;5.82;;;24.60;99.90;;;;;;5073601;28;20120;-67
2021/12/23 05:41:43;;;;;;;21.23;5.82;;;24.60;99.90;;;;;;5054404;28;20037;-68
2021/12/23 05:44:10;;;;;;;23.52;5.53;;;24.60;99.90;;;;;;5050089;28;20049;-69
2021/12/23 05:46:37;;;;;;;23.67;6.05;;;24.60;99.90;;;;;;5054384;28;20498;-69
2021/12/23 05:49:05;;;;;;;19.38;4.15;;;24.50;99.90;;;;;;5051741;28;20059;-69
2021/12/23 05:51:35;;;;;;;20.40;5.45;;;24.50;99.90;;;;;;5037631;28;20032;-69
2021/12/23 05:54:02;;;;;;;17.73;3.72;;;24.50;99.90;;;;;;5053745;28;20390;-69
2021/12/23 05:56:29;;;;;;;20.33;5.15;;;24.50;99.90;;;;;;5046724;28;20059;-68
2021/12/23 05:58:57;;;;;;;40.28;8.95;;;24.50;99.90;;;;;;5039293;28;20602;-68
2021/12/23 06:01:24;;;;;;;18.95;4.25;;;24.50;99.90;;;;;;5048693;28;20029;-68
2021/12/23 06:03:51;;;;;;;18.85;5.40;;;24.50;99.90;;;;;;5051509;28;20444;-68
2021/12/23 06:06:19;;;;;;;14.18;3.67;;;24.50;99.90;;;;;;5048047;28;20033;-68
2021/12/23 06:08:46;;;;;;;13.55;3.70;;;24.40;99.90;;;;;;5050312;28;20029;-69
2021/12/23 06:11:13;;;;;;;10.80;2.63;;;24.40;99.90;;;;;;5048732;28;20059;-69
2021/12/23 06:13:41;;;;;;;13.65;3.40;;;24.40;99.90;;;;;;5050781;28;20029;-69
2021/12/23 06:16:08;;;;;;;14.90;3.85;;;24.30;99.90;;;;;;5052742;28;20104;-69
2021/12/23 06:18:36;;;;;;;6.85;2.50;;;24.20;99.90;;;;;;5050402;28;20545;-69
2021/12/23 06:21:03;;;;;;;12.90;2.67;;;24.20;99.90;;;;;;5052825;28;20445;-70
2021/12/23 06:23:31;;;;;;;12.18;3.08;;;24.10;99.90;;;;;;5053469;28;20021;-69
2021/12/23 06:25:59;;;;;;;11.35;3.45;;;24.10;99.90;;;;;;5049665;28;20052;-69
2021/12/23 06:28:26;;;;;;;14.43;3.63;;;24.00;99.90;;;;;;5052471;28;20057;-69
2021/12/23 06:30:53;;;;;;;8.80;2.50;;;24.00;99.90;;;;;;5051398;28;20078;-68
2021/12/23 06:33:21;;;;;;;16.48;3.92;;;23.90;99.90;;;;;;5050414;28;20029;-70
2021/12/23 06:35:48;;;;;;;14.23;3.05;;;23.90;99.90;;;;;;5045449;28;20394;-71
2021/12/23 06:38:15;;;;;;;16.60;4.05;;;23.90;99.90;;;;;;5049847;28;20029;-70
2021/12/23 06:40:43;;;;;;;12.38;3.65;;;23.90;99.90;;;;;;5050406;28;20033;-69
2021/12/23 06:43:10;;;;;;;19.58;4.07;;;23.90;99.90;;;;;;5044744;28;20393;-70
2021/12/23 06:45:37;;;;;;;21.13;4.50;;;23.90;99.90;;;;;;5051066;28;20397;-70
2021/12/23 06:48:05;;;;;;;16.55;4.10;;;23.90;99.90;;;;;;5051938;28;20053;-69
2021/12/23 06:50:33;;;;;;;16.88;3.92;;;24.00;99.90;;;;;;5051790;28;20432;-70
2021/12/23 06:53:00;;;;;;;15.85;3.72;;;23.90;99.90;;;;;;5046063;28;20087;-70
2021/12/23 06:55:27;;;;;;;13.48;3.50;;;23.90;99.90;;;;;;5055972;28;20099;-70
2021/12/23 06:57:56;;;;;;;14.02;3.30;;;24.00;99.90;;;;;;5050415;28;20090;-71
2021/12/23 07:00:27;;;;;;;15.68;4.65;;;23.90;99.90;;;;;;5052335;28;20553;-70
2021/12/23 07:02:54;;;;;;;12.07;3.75;;;24.00;99.90;;;;;;5052062;28;20373;-70
2021/12/23 07:05:22;;;;;;;12.45;4.18;;;23.90;99.90;;;;;;5047239;28;20038;-70
2021/12/23 07:08:03;;;;;;;16.33;3.80;;;23.90;99.90;;;;;;5050988;28;20072;-71
2021/12/23 07:10:32;;;;;;;16.95;3.22;;;24.00;99.90;;;;;;5050768;28;20037;-70
2021/12/23 07:13:00;;;;;;;16.20;4.15;;;24.00;99.90;;;;;;5051823;28;20021;-70
2021/12/23 07:15:28;;;;;;;14.10;3.28;;;24.10;99.90;;;;;;5048590;28;20593;-70
2021/12/23 07:17:57;;;;;;;12.88;2.95;;;24.00;99.90;;;;;;5050447;28;20022;-70
2021/12/23 07:20:26;;;;;;;18.30;4.10;;;24.00;99.90;;;;;;5052001;28;20056;-70
2021/12/23 07:22:53;;;;;;;17.63;3.50;;;24.00;99.90;;;;;;5048140;28;20051;-69
2021/12/23 07:25:21;;;;;;;15.20;3.70;;;24.10;99.90;;;;;;5050221;28;20612;-69
2021/12/23 07:27:48;;;;;;;17.25;4.00;;;24.10;99.90;;;;;;5045314;28;20063;-69
2021/12/23 07:30:18;;;;;;;12.55;2.63;;;24.10;99.90;;;;;;5042851;28;20032;-69
2021/12/23 07:32:47;;;;;;;11.63;3.40;;;24.10;99.90;;;;;;5049696;28;20473;-69
2021/12/23 07:35:15;;;;;;;11.77;3.05;;;24.10;99.90;;;;;;5071744;28;20039;-70
2021/12/23 07:37:43;;;;;;;11.20;3.00;;;24.00;99.90;;;;;;5051458;28;20033;-70
2021/12/23 07:40:15;;;;;;;12.95;3.30;;;24.10;99.90;;;;;;5051801;28;20029;-70
2021/12/23 07:43:56;;;;;;;11.38;3.15;;;24.00;99.90;;;;;;5053865;28;20021;-69
2021/12/23 07:45:40;;;;;;;13.80;3.72;;;24.00;99.90;;;;;;5042562;28;20108;-70
2021/12/23 07:48:08;;;;;;;13.55;3.92;;;24.10;99.90;;;;;;5055658;28;20098;-71
2021/12/23 07:50:37;;;;;;;13.45;3.92;;;24.10;99.90;;;;;;5055537;28;20123;-70
2021/12/23 07:53:04;;;;;;;13.57;3.78;;;24.10;99.90;;;;;;5054402;28;20493;-69
2021/12/23 07:55:31;;;;;;;12.93;3.38;;;24.10;99.90;;;;;;5054214;28;20068;-70
2021/12/23 07:57:59;;;;;;;18.00;3.92;;;24.10;99.90;;;;;;5053449;28;20029;-69
2021/12/23 08:00:29;;;;;;;13.02;4.60;;;24.10;99.90;;;;;;5055320;28;20074;-70
2021/12/23 08:02:57;;;;;;;17.17;4.95;;;24.10;99.90;;;;;;5054287;28;20047;-69
2021/12/23 08:05:24;;;;;;;15.40;3.95;;;24.10;99.90;;;;;;5044954;28;20523;-69
2021/12/23 08:07:54;;;;;;;15.27;4.43;;;24.00;99.90;;;;;;5039906;28;20031;-69
2021/12/23 08:10:21;;;;;;;13.45;4.20;;;24.00;99.90;;;;;;5065131;28;20521;-69
2021/12/23 08:12:49;;;;;;;11.07;4.10;;;24.00;99.90;;;;;;5060364;28;20074;-69
2021/12/23 08:15:16;;;;;;;14.90;4.20;;;23.90;99.90;;;;;;5053600;28;20033;-69
2021/12/23 08:17:44;;;;;;;13.38;4.25;;;24.00;99.90;;;;;;5053976;28;20074;-71
2021/12/23 08:20:13;;;;;;;9.15;3.38;;;24.00;99.90;;;;;;5054981;28;20020;-72
2021/12/23 08:22:41;;;;;;;12.40;3.70;;;23.90;99.90;;;;;;5054165;28;20060;-70
2021/12/23 08:25:10;;;;;;;11.23;3.33;;;23.90;99.90;;;;;;5052799;28;20032;-70
2021/12/23 08:27:38;;;;;;;15.35;3.75;;;23.90;99.90;;;;;;5075046;28;20025;-69
2021/12/23 08:30:08;;;;;;;11.75;3.55;;;23.90;99.90;;;;;;5066589;28;20108;-69
2021/12/23 08:32:36;;;;;;;13.32;3.45;;;23.80;99.90;;;;;;5055412;28;20485;-69
2021/12/23 08:35:04;;;;;;;13.73;3.20;;;23.90;99.90;;;;;;5054665;28;20082;-69
2021/12/23 08:37:31;;;;;;;9.30;3.00;;;23.80;99.90;;;;;;5055330;28;20049;-69
2021/12/23 08:39:59;;;;;;;14.35;3.47;;;23.70;99.90;;;;;;5051984;28;20037;-70
2021/12/23 08:42:26;;;;;;;11.27;3.58;;;23.70;99.90;;;;;;5038740;28;20061;-71
2021/12/23 08:44:53;;;;;;;14.32;3.60;;;23.70;99.90;;;;;;5075556;28;20104;-70
2021/12/23 08:47:20;;;;;;;14.05;4.13;;;23.70;99.90;;;;;;5058778;28;20047;-70
2021/12/23 08:49:48;;;;;;;11.23;4.63;;;23.60;99.90;;;;;;5054856;28;20071;-69
2021/12/23 08:52:15;;;;;;;12.75;3.00;;;23.60;99.90;;;;;;5053713;28;20385;-71
2021/12/23 08:54:42;;;;;;;10.25;3.53;;;23.60;99.90;;;;;;5055102;28;20025;-68
2021/12/23 08:57:10;;;;;;;11.48;4.13;;;23.60;99.90;;;;;;5048950;28;20030;-69
2021/12/23 08:59:38;;;;;;;11.10;3.67;;;23.60;99.90;;;;;;5039304;28;20457;-69
2021/12/23 09:02:05;;;;;;;14.48;3.42;;;23.50;99.90;;;;;;5054508;28;20029;-68
2021/12/23 09:04:34;;;;;;;11.88;4.28;;;23.50;99.90;;;;;;5054708;28;20090;-68
2021/12/23 09:07:02;;;;;;;16.45;3.38;;;23.50;99.90;;;;;;5053035;28;20123;-69
2021/12/23 09:09:32;;;;;;;14.85;4.18;;;23.50;99.90;;;;;;5054675;28;20091;-70
2021/12/23 09:12:01;;;;;;;11.18;4.15;;;23.50;99.90;;;;;;5053419;28;20398;-69
2021/12/23 09:14:28;;;;;;;9.20;3.42;;;23.40;99.90;;;;;;5055323;28;20052;-69
2021/12/23 09:16:56;;;;;;;15.90;4.32;;;23.40;99.90;;;;;;5054080;28;20086;-69
2021/12/23 09:19:23;;;;;;;16.23;3.53;;;23.40;99.90;;;;;;5051667;28;20056;-69
2021/12/23 09:21:51;;;;;;;14.15;3.63;;;23.40;99.90;;;;;;5048302;28;20374;-69
2021/12/23 09:24:19;;;;;;;16.15;3.78;;;23.30;99.90;;;;;;5054123;28;20485;-69
2021/12/23 09:27:04;;;;;;;11.82;3.75;;;23.30;99.90;;;;;;5053395;28;20033;-69
2021/12/23 09:34:59;;;;;;;14.82;3.45;;;23.30;99.90;;;;;;5054220;28;20075;-71
2021/12/23 09:37:28;;;;;;;13.63;4.20;;;23.30;99.90;;;;;;5052632;28;20390;-70
2021/12/23 09:39:57;;;;;;;13.80;4.40;;;23.30;99.90;;;;;;5054082;28;20025;-70
2021/12/23 09:42:30;;;;;;;13.18;3.80;;;23.30;99.90;;;;;;5067663;28;20040;-71
2021/12/23 09:45:00;;;;;;;12.05;3.95;;;23.30;99.90;;;;;;5074061;28;20384;-70
2021/12/23 09:47:32;;;;;;;16.10;4.40;;;23.20;99.90;;;;;;5053416;28;20475;-70
2021/12/23 09:50:01;;;;;;;14.73;3.83;;;23.20;99.90;;;;;;5054082;28;20067;-70
2021/12/23 09:52:32;;;;;;;15.02;4.25;;;23.20;99.90;;;;;;5052139;28;20017;-68
2021/12/23 09:55:04;;;;;;;9.63;4.13;;;23.20;99.90;;;;;;5051099;28;20025;-70
2021/12/23 09:57:31;;;;;;;8.93;3.22;;;23.20;99.90;;;;;;5051677;28;20624;-70
2021/12/23 09:59:59;;;;;;;9.52;3.45;;;23.10;99.90;;;;;;5052370;28;20033;-70
2021/12/23 10:02:26;;;;;;;16.90;4.68;;;23.10;99.90;;;;;;5052183;28;20061;-70
2021/12/23 10:04:54;;;;;;;14.77;3.85;;;23.10;99.90;;;;;;5057170;28;20032;-70
2021/12/23 10:07:21;;;;;;;11.90;3.88;;;23.10;99.90;;;;;;5054334;28;20116;-70
2021/12/23 10:10:02;;;;;;;11.30;3.20;;;23.10;99.90;;;;;;5040187;28;20427;-70
2021/12/23 10:38:18;;;;;;;11.38;4.45;;;23.00;99.90;;;;;;5026640;28;20038;-69
2021/12/23 10:40:49;;;;;;;9.25;4.25;;;23.00;99.90;;;;;;5043466;28;20489;-68
2021/12/23 10:43:48;;;;;;;14.00;5.13;;;23.00;99.90;;;;;;5048348;28;20060;-70
2021/12/23 10:46:23;;;;;;;18.17;5.20;;;23.00;99.90;;;;;;5051632;28;20113;-70
2021/12/23 10:52:04;;;;;;;12.32;4.57;;;23.00;99.90;;;;;;5024347;28;20033;-70
2021/12/23 11:00:34;;;;;;;11.55;4.93;;;23.00;99.90;;;;;;5054359;28;20070;-69
2021/12/23 11:03:29;;;;;;;11.55;5.13;;;23.00;99.90;;;;;;5055350;28;20095;-69
2021/12/23 11:06:28;;;;;;;15.00;5.07;;;23.00;99.90;;;;;;5055055;28;20120;-68
2021/12/23 11:08:57;;;;;;;16.17;5.68;;;23.00;99.90;;;;;;5043308;28;20088;-69
2021/12/23 11:27:29;;;;;;;12.15;4.88;;;23.00;99.90;;;;;;5036723;28;20394;-67
2021/12/23 11:42:03;;;;;;;8.68;4.05;;;23.00;99.90;;;;;;5034229;28;20052;-69
2021/12/23 11:44:32;;;;;;;10.85;3.83;;;23.00;99.90;;;;;;5050435;28;20032;-68
2021/12/23 11:47:10;;;;;;;13.52;5.00;;;23.00;99.90;;;;;;5049933;28;20082;-68
2021/12/23 11:49:40;;;;;;;12.13;4.38;;;23.00;99.90;;;;;;5052929;28;20044;-68
2021/12/23 11:52:08;;;;;;;12.02;3.88;;;23.00;99.90;;;;;;5049901;28;20037;-67
2021/12/23 11:54:41;;;;;;;11.25;3.90;;;23.00;99.90;;;;;;5052710;28;20435;-67
2021/12/23 11:57:15;;;;;;;10.70;3.92;;;23.00;99.90;;;;;;5050034;28;20018;-68
2021/12/23 11:59:46;;;;;;;;;;;23.10;99.90;;;;;;5051671;28;20041;-68
2021/12/23 12:02:19;;;;;;;13.82;4.07;;;23.10;99.90;;;;;;5050244;28;19919;-68
2021/12/23 12:04:49;;;;;;;8.33;3.37;;;23.00;99.90;;;;;;5050912;28;20033;-68
2021/12/23 12:07:21;;;;;;;16.27;3.95;;;23.10;99.90;;;;;;5047772;28;20021;-69
2021/12/23 12:10:00;;;;;;;15.10;3.80;;;23.10;99.90;;;;;;5052084;28;20095;-69
2021/12/23 12:12:29;;;;;;;9.05;4.07;;;23.00;99.90;;;;;;5052025;28;20017;-68
2021/12/23 12:14:57;;;;;;;10.27;3.47;;;23.00;99.90;;;;;;5050508;28;20485;-68
2021/12/23 12:17:30;;;;;;;10.75;3.53;;;23.00;99.90;;;;;;5051155;28;20070;-68
2021/12/23 12:20:13;;;;;;;14.65;3.50;;;22.90;99.90;;;;;;5050839;28;20116;-68
2021/12/23 12:23:32;;;;;;;10.35;3.92;;;23.00;99.90;;;;;;5050532;28;20440;-68
2021/12/23 12:26:12;;;;;;;12.07;3.22;;;22.90;99.90;;;;;;5024294;28;20064;-68
2021/12/23 12:28:46;;;;;;;9.60;3.10;;;22.90;99.90;;;;;;5036050;28;20026;-67
2021/12/23 12:31:26;;;;;;;13.57;2.70;;;22.90;99.90;;;;;;5047546;28;20036;-69
2021/12/23 12:34:06;;;;;;;8.43;3.13;;;22.80;99.90;;;;;;5054444;28;20039;-68
2021/12/23 12:36:40;;;;;;;8.82;2.78;;;22.90;99.90;;;;;;5039788;28;20053;-68
2021/12/23 12:39:10;;;;;;;9.68;3.97;;;22.90;99.90;;;;;;5055461;28;20112;-68
2021/12/23 12:41:42;;;;;;;9.20;3.08;;;22.90;99.90;;;;;;5055452;28;20021;-69
2021/12/23 12:44:35;;;;;;;9.05;3.10;;;22.80;99.90;;;;;;5055496;28;20385;-68
2021/12/23 12:47:18;;;;;;;9.10;2.85;;;22.80;99.90;;;;;;5055571;28;20049;-68
2021/12/23 12:49:52;;;;;;;7.78;2.25;;;22.80;99.90;;;;;;5054565;28;20087;-69
2021/12/23 12:52:23;;;;;;;;;;;22.80;99.90;;;;;;5056466;28;20029;-68
2021/12/23 12:54:59;;;;;;;7.72;2.70;;;22.80;99.90;;;;;;5052361;28;20396;-68
2021/12/23 12:57:36;;;;;;;10.10;2.85;;;22.80;99.90;;;;;;5048350;28;20017;-69
2021/12/23 13:00:40;;;;;;;4.93;2.78;;;22.70;99.90;;;;;;5054134;28;20029;-68
2021/12/23 13:03:22;;;;;;;8.45;2.80;;;22.70;99.90;;;;;;5048092;28;20036;-69
2021/12/23 13:05:53;;;;;;;8.35;2.22;;;22.80;99.90;;;;;;5054949;28;20040;-68
2021/12/23 13:08:33;;;;;;;10.15;3.17;;;22.80;99.90;;;;;;5055226;28;20020;-69
2021/12/23 13:11:07;;;;;;;8.43;2.92;;;22.80;99.90;;;;;;5055342;28;20035;-68
2021/12/23 13:13:42;;;;;;;10.10;2.97;;;22.80;99.90;;;;;;5053558;28;20035;-68
2021/12/23 13:16:23;;;;;;;11.27;3.40;;;22.80;99.90;;;;;;5054660;28;20045;-68
2021/12/23 13:19:13;;;;;;;10.43;3.10;;;22.80;99.90;;;;;;5055282;28;20021;-68
2021/12/23 13:21:43;;;;;;;10.43;3.70;;;22.80;99.90;;;;;;5051639;28;20041;-68
2021/12/23 13:24:15;;;;;;;8.98;2.58;;;22.70;99.90;;;;;;5054873;28;20113;-68
2021/12/23 13:26:42;;;;;;;10.52;2.97;;;22.70;99.90;;;;;;5054002;28;20023;-69
2021/12/23 13:29:10;;;;;;;8.30;3.25;;;22.70;99.90;;;;;;5055016;28;20055;-69
2021/12/23 13:31:39;;;;;;;8.77;2.28;;;22.70;99.90;;;;;;5049531;28;20036;-69
2021/12/23 13:34:12;;;;;;;6.53;1.70;;;22.70;99.90;;;;;;5035328;28;20022;-68
2021/12/23 13:36:45;;;;;;;8.20;3.05;;;22.70;99.90;;;;;;5036009;28;20031;-69
2021/12/23 13:39:17;;;;;;;10.57;3.30;;;22.80;99.90;;;;;;5046287;28;20106;-69
2021/12/23 13:41:52;;;;;;;7.60;3.00;;;22.80;99.90;;;;;;5038472;28;20057;-69
2021/12/23 13:44:30;;;;;;;8.88;2.72;;;22.80;99.90;;;;;;5054276;28;20088;-68
2021/12/23 13:47:04;;;;;;;8.63;2.38;;;22.70;99.90;;;;;;5053658;28;20137;-68
2021/12/23 13:49:50;;;;;;;7.43;2.35;;;22.80;99.90;;;;;;5050710;28;20033;-68
2021/12/23 13:52:38;;;;;;;11.68;3.08;;;22.80;99.90;;;;;;5048170;28;20517;-68
2021/12/23 13:55:13;;;;;;;7.38;2.60;;;22.70;99.90;;;;;;5035982;28;20478;-68
2021/12/23 13:57:49;;;;;;;6.38;2.65;;;22.70;99.90;;;;;;5053450;28;20396;-68
2021/12/23 14:00:33;;;;;;;7.90;2.30;;;22.70;99.90;;;;;;5052895;28;20394;-69
2021/12/23 14:03:12;;;;;;;9.50;2.33;;;22.70;99.90;;;;;;5053010;28;20017;-68
2021/12/23 14:05:42;;;;;;;9.45;2.65;;;22.60;99.90;;;;;;5054308;28;20133;-68
2021/12/23 14:08:11;;;;;;;11.80;2.30;;;22.60;99.90;;;;;;5054136;28;20020;-69
2021/12/23 14:10:42;;;;;;;10.30;2.50;;;22.60;99.90;;;;;;5054856;28;20052;-68